Time;durP1;ratioP1;P1;durP2;ratioP2;P2;SDS_P1;SDS_P2;PMS_P1;PMS_P2;Temp;Humidity;BMP_temperature;BMP_pressure;BME280_temperature;BME280_humidity;BME280_pressure;Samples;Min_cycle;Max_cycle;Signal;HPM_P1;HPM_P2
2023/05/03 00:00:09;;;;;;;1.13;0.90;;;18.60;43.10;;;;;;6224467;23;20156;-84
2023/05/03 00:02:38;;;;;;;1.50;0.80;;;18.60;43.10;;;;;;6223585;23;20143;-84
2023/05/03 00:05:06;;;;;;;1.30;0.93;;;18.60;43.20;;;;;;6199600;23;20218;-84
2023/05/03 00:07:32;;;;;;;0.98;0.85;;;18.60;43.10;;;;;;6224506;23;20148;-84
2023/05/03 00:09:58;;;;;;;2.20;0.80;;;18.60;43.10;;;;;;6223954;23;20526;-85
2023/05/03 00:12:24;;;;;;;1.73;0.93;;;18.60;43.10;;;;;;6122874;23;20169;-85
2023/05/03 00:14:50;;;;;;;2.13;1.00;;;18.60;43.80;;;;;;6224163;23;20137;-84
2023/05/03 00:17:16;;;;;;;1.98;1.00;;;18.60;43.20;;;;;;6223805;23;20152;-84
2023/05/03 00:19:42;;;;;;;1.88;0.80;;;18.50;43.20;;;;;;6224100;23;20145;-84
2023/05/03 00:22:08;;;;;;;2.70;0.85;;;18.60;43.30;;;;;;6122402;23;20149;-84
2023/05/03 00:24:34;;;;;;;2.13;1.05;;;18.60;43.30;;;;;;6198582;23;20179;-84
2023/05/03 00:27:00;;;;;;;2.28;0.82;;;18.60;43.30;;;;;;6122245;23;20139;-84
2023/05/03 00:29:26;;;;;;;1.38;1.00;;;18.60;43.30;;;;;;6122398;23;20178;-84
2023/05/03 00:31:52;;;;;;;1.58;0.82;;;18.50;43.30;;;;;;6122273;23;20164;-84
2023/05/03 00:34:17;;;;;;;2.10;0.98;;;18.60;43.30;;;;;;6198714;23;20196;-84
2023/05/03 00:36:43;;;;;;;1.45;0.90;;;18.60;43.30;;;;;;6223607;23;20151;-84
2023/05/03 00:39:10;;;;;;;2.55;0.75;;;18.50;43.30;;;;;;6224007;23;20154;-84
2023/05/03 00:41:36;;;;;;;2.15;0.98;;;18.50;43.30;;;;;;6223805;23;20673;-84
2023/05/03 00:44:02;;;;;;;1.15;0.82;;;18.50;43.40;;;;;;6198586;23;20579;-84
2023/05/03 00:46:28;;;;;;;1.10;0.80;;;18.60;43.40;;;;;;6122022;23;20171;-84
2023/05/03 00:48:54;;;;;;;1.23;0.93;;;18.50;43.30;;;;;;6223997;23;20140;-85
2023/05/03 00:51:20;;;;;;;3.67;1.00;;;18.50;43.30;;;;;;6198480;23;20232;-84
2023/05/03 00:53:46;;;;;;;2.22;1.02;;;18.50;43.30;;;;;;6224113;23;20164;-84
2023/05/03 00:56:12;;;;;;;2.05;0.98;;;18.60;43.40;;;;;;6122525;23;20678;-84
2023/05/03 00:58:38;;;;;;;2.60;0.82;;;18.50;43.40;;;;;;6121937;23;20211;-84
2023/05/03 01:01:06;;;;;;;1.15;0.77;;;18.50;43.50;;;;;;6122284;23;20505;-84
2023/05/03 01:03:35;;;;;;;1.83;1.10;;;18.50;43.50;;;;;;6199529;23;20180;-84
2023/05/03 01:06:10;;;;;;;1.15;0.90;;;18.50;43.40;;;;;;6223421;23;20187;-84
2023/05/03 01:08:40;;;;;;;1.58;0.95;;;18.40;43.40;;;;;;6200361;23;20218;-84
2023/05/03 01:11:24;;;;;;;3.50;1.20;;;18.50;43.50;;;;;;6225507;23;20163;-85
2023/05/03 01:14:00;;;;;;;3.03;0.88;;;18.50;43.50;;;;;;6225943;23;20137;-85
2023/05/03 01:16:39;;;;;;;1.65;0.95;;;18.50;43.40;;;;;;6225314;23;20223;-84
2023/05/03 01:19:12;;;;;;;1.83;0.80;;;18.50;43.50;;;;;;6123495;23;20140;-85
2023/05/03 01:21:40;;;;;;;1.80;0.90;;;18.50;43.50;;;;;;6123576;23;20148;-84
2023/05/03 01:24:16;;;;;;;1.95;0.95;;;18.50;43.50;;;;;;6200334;23;20222;-84
2023/05/03 01:26:42;;;;;;;2.25;1.00;;;18.50;43.50;;;;;;6225370;23;20148;-84
2023/05/03 01:29:09;;;;;;;2.13;1.15;;;18.50;43.50;;;;;;6225931;23;20472;-84
2023/05/03 01:31:43;;;;;;;0.90;0.80;;;18.50;43.50;;;;;;6200244;23;20186;-84
2023/05/03 01:34:27;;;;;;;2.88;1.15;;;18.40;43.40;;;;;;6224970;23;20191;-84
2023/05/03 01:36:55;;;;;;;1.45;0.98;;;18.50;43.60;;;;;;6203306;23;20137;-85
2023/05/03 01:39:24;;;;;;;1.35;0.85;;;18.50;43.50;;;;;;6123492;23;20132;-85
2023/05/03 01:41:50;;;;;;;2.53;0.82;;;18.40;43.50;;;;;;6200009;23;20487;-84
2023/05/03 01:44:16;;;;;;;1.00;0.90;;;18.40;43.50;;;;;;6123029;23;20206;-84
2023/05/03 01:46:43;;;;;;;1.85;0.90;;;18.40;43.50;;;;;;6200520;23;20576;-84
2023/05/03 01:49:09;;;;;;;1.38;0.90;;;18.50;43.60;;;;;;6225258;23;20140;-85
2023/05/03 01:51:35;;;;;;;2.53;0.85;;;18.40;43.50;;;;;;6225233;23;20137;-84
2023/05/03 01:54:01;;;;;;;1.38;0.80;;;18.40;43.50;;;;;;6225430;23;20268;-84
2023/05/03 01:56:27;;;;;;;2.95;0.80;;;18.50;43.70;;;;;;6225111;23;20142;-84
2023/05/03 01:58:57;;;;;;;1.77;0.85;;;18.50;43.70;;;;;;6225431;23;20145;-84
2023/05/03 02:01:23;;;;;;;1.25;0.90;;;18.50;43.70;;;;;;6149440;23;20472;-85
2023/05/03 02:03:49;;;;;;;1.05;0.73;;;18.40;43.60;;;;;;6200761;23;20156;-84
2023/05/03 02:06:15;;;;;;;1.23;0.93;;;18.50;43.70;;;;;;6225527;23;20186;-85
2023/05/03 02:08:41;;;;;;;1.55;1.00;;;18.40;43.60;;;;;;6224835;23;20176;-84
2023/05/03 02:11:07;;;;;;;1.95;0.75;;;18.40;43.60;;;;;;6200190;23;20144;-85
2023/05/03 02:13:38;;;;;;;1.50;1.00;;;18.40;43.60;;;;;;6122995;23;20141;-84
2023/05/03 02:16:04;;;;;;;1.90;0.90;;;18.40;43.70;;;;;;6173116;23;20607;-84
2023/05/03 02:18:30;;;;;;;2.15;1.02;;;18.40;43.70;;;;;;6199869;23;20159;-85
2023/05/03 02:20:56;;;;;;;1.00;0.70;;;18.40;43.70;;;;;;6122923;23;20155;-84
2023/05/03 02:23:23;;;;;;;1.33;0.90;;;18.30;43.60;;;;;;6199927;23;20155;-84
2023/05/03 02:25:48;;;;;;;2.20;0.73;;;18.40;43.70;;;;;;6199523;23;20180;-85
2023/05/03 02:28:15;;;;;;;1.58;1.00;;;18.40;43.70;;;;;;6123162;23;20189;-84
2023/05/03 02:30:44;;;;;;;0.98;0.90;;;18.40;43.70;;;;;;6225105;23;20132;-84
2023/05/03 02:33:10;;;;;;;1.23;0.82;;;18.40;43.80;;;;;;6149670;23;20163;-84
2023/05/03 02:35:36;;;;;;;1.95;0.90;;;18.40;43.80;;;;;;6224806;23;20196;-84
2023/05/03 02:38:02;;;;;;;1.50;0.98;;;18.40;43.80;;;;;;6225110;23;20144;-84
2023/05/03 02:40:32;;;;;;;1.63;0.80;;;18.30;43.80;;;;;;6199585;23;20599;-84
2023/05/03 02:42:58;;;;;;;0.77;0.70;;;18.40;43.80;;;;;;6149548;23;20156;-84
2023/05/03 02:45:24;;;;;;;2.40;0.80;;;18.40;43.80;;;;;;6199850;23;20624;-85
2023/05/03 02:47:50;;;;;;;2.22;0.82;;;18.30;43.70;;;;;;6199478;23;20506;-84
2023/05/03 02:50:16;;;;;;;1.17;0.80;;;18.40;43.80;;;;;;6224967;23;20140;-84
2023/05/03 02:52:42;;;;;;;0.90;0.88;;;18.40;43.70;;;;;;6224896;23;20160;-84
2023/05/03 02:55:09;;;;;;;3.67;1.15;;;18.40;43.90;;;;;;6225673;23;20459;-84
2023/05/03 02:57:35;;;;;;;1.08;0.88;;;18.30;43.90;;;;;;6224525;23;20514;-85
2023/05/03 03:00:01;;;;;;;2.67;0.90;;;18.40;43.90;;;;;;6225057;23;20136;-84
2023/05/03 03:02:26;;;;;;;0.82;0.60;;;18.40;43.90;;;;;;6122718;23;20163;-84
2023/05/03 03:04:52;;;;;;;1.65;0.80;;;18.30;43.90;;;;;;6199166;23;20515;-83
2023/05/03 03:07:18;;;;;;;0.95;0.85;;;18.30;43.90;;;;;;6225232;23;20147;-84
2023/05/03 03:09:49;;;;;;;1.17;1.05;;;18.40;43.90;;;;;;6224905;23;20143;-84
2023/05/03 03:12:15;;;;;;;1.30;0.90;;;18.30;43.90;;;;;;6173513;23;20152;-84
2023/05/03 03:14:44;;;;;;;1.48;1.05;;;18.30;43.90;;;;;;6224534;23;20187;-84
2023/05/03 03:17:10;;;;;;;0.60;0.60;;;18.30;43.90;;;;;;6122933;23;20137;-84
2023/05/03 03:19:36;;;;;;;1.13;0.80;;;18.30;43.90;;;;;;6200238;23;20235;-84
2023/05/03 03:22:02;;;;;;;1.77;1.02;;;18.30;43.90;;;;;;6225104;23;20219;-84
2023/05/03 03:24:28;;;;;;;1.30;0.95;;;18.30;43.90;;;;;;6199953;23;20152;-83
2023/05/03 03:26:54;;;;;;;1.25;0.80;;;18.30;44.00;;;;;;6224474;23;20132;-84
2023/05/03 03:29:20;;;;;;;1.38;0.80;;;18.30;44.00;;;;;;6224127;23;20151;-84
2023/05/03 03:31:46;;;;;;;1.88;0.98;;;18.30;43.90;;;;;;6122577;23;20136;-84
2023/05/03 03:34:12;;;;;;;1.63;0.98;;;18.30;44.00;;;;;;6122479;22;20187;-84
2023/05/03 03:36:38;;;;;;;0.93;0.80;;;18.30;44.00;;;;;;6122955;23;20151;-84
2023/05/03 03:39:05;;;;;;;1.10;1.00;;;18.30;44.00;;;;;;6224086;23;20141;-84
2023/05/03 03:41:32;;;;;;;1.05;0.90;;;18.30;44.00;;;;;;6224613;23;20132;-84
2023/05/03 03:43:58;;;;;;;2.22;1.00;;;18.30;44.00;;;;;;6199681;23;20155;-84
2023/05/03 03:46:24;;;;;;;1.00;0.90;;;18.30;44.10;;;;;;6198674;23;20677;-84
2023/05/03 03:48:50;;;;;;;1.90;1.30;;;18.20;44.00;;;;;;6224404;23;20133;-84
2023/05/03 03:51:16;;;;;;;1.00;0.73;;;18.20;44.00;;;;;;6122824;23;20143;-84
2023/05/03 03:53:42;;;;;;;2.17;1.13;;;18.30;44.10;;;;;;6122799;23;20464;-84
2023/05/03 03:56:08;;;;;;;1.30;0.80;;;18.30;44.10;;;;;;6224139;23;20139;-84
2023/05/03 03:58:34;;;;;;;1.80;1.10;;;18.30;44.00;;;;;;6224124;23;20144;-83
2023/05/03 04:01:00;;;;;;;1.30;0.88;;;18.30;43.90;;;;;;6198883;23;20148;-84
2023/05/03 04:03:26;;;;;;;1.00;0.70;;;18.30;44.00;;;;;;6224064;23;20132;-84
2023/05/03 04:05:52;;;;;;;1.35;1.00;;;18.30;44.00;;;;;;6122282;23;20226;-83
2023/05/03 04:08:18;;;;;;;1.30;0.90;;;18.30;44.00;;;;;;6199038;23;20155;-84
2023/05/03 04:10:45;;;;;;;2.45;0.95;;;18.30;43.90;;;;;;6224268;23;20132;-84
2023/05/03 04:13:10;;;;;;;1.80;0.93;;;18.30;43.90;;;;;;6198800;23;20152;-84
2023/05/03 04:15:36;;;;;;;1.20;0.85;;;18.30;43.90;;;;;;6224455;23;20162;-84
2023/05/03 04:18:02;;;;;;;0.82;0.70;;;18.40;44.00;;;;;;6224508;23;20148;-84
2023/05/03 04:20:28;;;;;;;1.90;0.80;;;18.30;43.90;;;;;;6122327;23;20210;-84
2023/05/03 04:22:54;;;;;;;1.50;0.93;;;18.30;44.00;;;;;;6198640;23;20576;-84
2023/05/03 04:25:20;;;;;;;1.98;0.82;;;18.30;43.90;;;;;;6223971;23;20176;-84
2023/05/03 04:27:47;;;;;;;0.95;0.80;;;18.30;43.90;;;;;;6199425;23;20235;-84
2023/05/03 04:30:14;;;;;;;1.05;0.90;;;18.30;44.00;;;;;;6224522;23;20595;-84
2023/05/03 04:32:41;;;;;;;0.75;0.73;;;18.30;43.90;;;;;;6122372;23;21024;-84
2023/05/03 04:35:09;;;;;;;0.63;0.63;;;18.30;43.90;;;;;;6122101;22;20195;-84
2023/05/03 04:37:37;;;;;;;1.48;1.13;;;18.40;43.90;;;;;;6122044;23;20560;-84
2023/05/03 04:40:07;;;;;;;1.67;0.80;;;18.30;43.90;;;;;;6225154;23;20136;-83
2023/05/03 04:42:34;;;;;;;1.35;0.80;;;18.40;43.90;;;;;;6201666;23;20157;-84
2023/05/03 04:45:02;;;;;;;0.85;0.65;;;18.40;43.90;;;;;;6123159;23;20189;-84
2023/05/03 04:47:28;;;;;;;1.38;0.98;;;18.40;43.90;;;;;;6224159;23;20133;-84
2023/05/03 04:49:54;;;;;;;1.38;0.75;;;18.30;43.90;;;;;;6201339;23;20279;-84
2023/05/03 04:52:20;;;;;;;1.48;0.70;;;18.30;43.90;;;;;;6225983;23;20156;-83
2023/05/03 04:54:46;;;;;;;0.82;0.63;;;18.30;43.90;;;;;;6123711;23;20215;-84
2023/05/03 04:57:12;;;;;;;0.80;0.77;;;18.40;43.90;;;;;;6225480;23;20164;-84
2023/05/03 04:59:38;;;;;;;1.85;0.77;;;18.30;43.90;;;;;;6123194;23;20136;-83
2023/05/03 05:02:04;;;;;;;1.42;0.95;;;18.40;43.90;;;;;;6225600;23;20160;-83
2023/05/03 05:04:30;;;;;;;0.88;0.77;;;18.40;43.90;;;;;;6123166;23;20270;-84
2023/05/03 05:06:56;;;;;;;0.93;0.80;;;18.40;43.90;;;;;;6225274;23;20160;-83
2023/05/03 05:09:23;;;;;;;1.48;0.82;;;18.40;43.80;;;;;;6200832;23;20152;-84
2023/05/03 05:11:49;;;;;;;1.08;0.73;;;18.50;43.70;;;;;;6225803;23;20226;-83
2023/05/03 05:14:15;;;;;;;1.92;1.13;;;18.40;43.80;;;;;;6226208;23;20132;-83
2023/05/03 05:16:41;;;;;;;1.05;0.63;;;18.40;43.80;;;;;;6123571;23;20445;-84
2023/05/03 05:19:07;;;;;;;0.95;0.77;;;18.40;43.80;;;;;;6225642;23;20143;-84
2023/05/03 05:21:33;;;;;;;0.90;0.65;;;18.50;43.70;;;;;;6225547;23;20164;-83
2023/05/03 05:24:00;;;;;;;1.35;0.80;;;18.50;43.70;;;;;;6225679;23;20270;-83
2023/05/03 05:26:26;;;;;;;1.52;0.80;;;18.40;43.70;;;;;;6225289;23;20164;-83
2023/05/03 05:28:52;;;;;;;1.88;0.80;;;18.50;43.70;;;;;;6225371;23;20133;-83
2023/05/03 05:31:18;;;;;;;1.75;0.80;;;18.50;43.70;;;;;;6225401;23;20174;-83
2023/05/03 05:33:44;;;;;;;0.98;0.90;;;18.60;43.60;;;;;;6225386;23;20211;-83
2023/05/03 05:36:11;;;;;;;1.08;0.80;;;18.50;43.50;;;;;;6225111;23;20164;-84
2023/05/03 05:38:37;;;;;;;1.05;0.60;;;18.50;43.50;;;;;;6199840;23;20636;-83
2023/05/03 05:41:03;;;;;;;1.20;0.80;;;18.60;43.50;;;;;;6123156;23;20164;-83
2023/05/03 05:43:28;;;;;;;0.82;0.70;;;18.60;43.40;;;;;;6226024;23;20190;-84
2023/05/03 05:45:54;;;;;;;1.92;0.80;;;18.60;43.30;;;;;;6123265;23;20271;-84
2023/05/03 05:48:20;;;;;;;1.13;0.80;;;18.60;43.40;;;;;;6225661;23;20239;-83
2023/05/03 05:50:47;;;;;;;1.10;0.65;;;18.60;43.40;;;;;;6123263;23;20506;-83
2023/05/03 05:53:13;;;;;;;1.25;0.85;;;18.60;43.40;;;;;;6225644;23;20152;-84
2023/05/03 05:55:39;;;;;;;1.02;0.90;;;18.60;43.40;;;;;;6225189;23;20140;-84
2023/05/03 05:58:05;;;;;;;0.93;0.73;;;18.60;43.40;;;;;;6225484;23;20578;-82
2023/05/03 06:00:31;;;;;;;2.55;0.98;;;18.60;43.40;;;;;;6225213;23;20229;-84
2023/05/03 06:03:00;;;;;;;1.08;0.70;;;18.60;43.30;;;;;;6122924;23;20510;-84
2023/05/03 06:05:26;;;;;;;0.57;0.57;;;18.60;44.10;;;;;;6200747;23;20176;-84
2023/05/03 06:07:52;;;;;;;2.05;0.80;;;18.70;43.30;;;;;;6226238;23;20168;-83
2023/05/03 06:10:18;;;;;;;1.50;0.80;;;18.60;43.30;;;;;;6200153;23;20168;-84
2023/05/03 06:12:44;;;;;;;1.98;0.80;;;18.70;43.40;;;;;;6200220;23;20460;-83
2023/05/03 06:15:10;;;;;;;0.75;0.75;;;18.70;43.30;;;;;;6225413;23;20143;-84
2023/05/03 06:17:36;;;;;;;1.45;0.80;;;18.70;43.30;;;;;;6123309;23;20140;-84
2023/05/03 06:20:03;;;;;;;1.13;0.90;;;18.60;43.30;;;;;;6123660;23;20576;-83
2023/05/03 06:22:29;;;;;;;1.50;0.82;;;18.80;43.20;;;;;;6123170;23;20133;-83
2023/05/03 06:24:55;;;;;;;1.40;0.70;;;18.70;43.20;;;;;;6123600;23;20214;-83
2023/05/03 06:27:21;;;;;;;0.95;0.73;;;18.80;43.10;;;;;;6123250;23;20144;-83
2023/05/03 06:29:48;;;;;;;0.95;0.80;;;18.80;43.10;;;;;;6225039;23;20140;-83
2023/05/03 06:32:14;;;;;;;2.40;0.90;;;18.80;43.10;;;;;;6224547;23;20468;-83
2023/05/03 06:34:45;;;;;;;0.73;0.70;;;18.80;43.10;;;;;;6225765;23;20192;-84
2023/05/03 06:37:11;;;;;;;1.83;0.80;;;18.80;43.10;;;;;;6126601;23;20243;-85
2023/05/03 06:39:37;;;;;;;1.13;0.70;;;18.80;43.20;;;;;;6226532;23;20129;-84
2023/05/03 06:42:03;;;;;;;2.05;0.70;;;18.70;43.20;;;;;;6227429;23;20132;-84
2023/05/03 06:44:29;;;;;;;0.60;0.60;;;18.60;43.40;;;;;;6225095;23;20144;-84
2023/05/03 06:46:55;;;;;;;0.73;0.70;;;18.60;43.40;;;;;;6200246;23;20179;-85
2023/05/03 06:49:21;;;;;;;2.30;0.77;;;18.70;43.40;;;;;;6226511;23;20148;-84
2023/05/03 06:51:47;;;;;;;0.70;0.70;;;18.70;43.30;;;;;;6225930;23;20152;-83
2023/05/03 06:54:14;;;;;;;0.98;0.60;;;18.70;43.20;;;;;;6123970;23;20128;-83
2023/05/03 06:56:40;;;;;;;0.85;0.80;;;18.80;43.10;;;;;;6225405;23;20231;-84
2023/05/03 06:59:07;;;;;;;1.13;0.80;;;18.80;43.10;;;;;;6224783;23;20206;-83
2023/05/03 07:01:33;;;;;;;1.30;0.93;;;18.70;43.20;;;;;;6198625;23;20568;-83
2023/05/03 07:03:59;;;;;;;0.98;0.77;;;18.80;43.30;;;;;;6224353;23;20187;-83
2023/05/03 07:06:25;;;;;;;0.70;0.70;;;18.80;43.00;;;;;;6199031;23;20176;-83
2023/05/03 07:08:52;;;;;;;1.10;0.80;;;18.80;43.40;;;;;;6199837;23;20155;-84
2023/05/03 07:11:22;;;;;;;1.08;0.70;;;18.70;44.20;;;;;;6224245;23;20133;-83
2023/05/03 07:13:50;;;;;;;1.35;0.50;;;18.80;43.80;;;;;;6225219;23;20154;-83
2023/05/03 07:16:17;;;;;;;0.75;0.63;;;18.80;43.70;;;;;;6200571;23;20148;-83
2023/05/03 07:18:43;;;;;;;0.85;0.70;;;18.80;43.30;;;;;;6201701;23;20155;-84
2023/05/03 07:21:10;;;;;;;0.88;0.80;;;18.80;43.10;;;;;;6199290;23;20140;-84
2023/05/03 07:23:55;;;;;;;2.30;0.90;;;18.70;43.30;;;;;;6224556;23;20522;-83
2023/05/03 07:26:21;;;;;;;0.95;0.73;;;18.60;43.40;;;;;;6201120;23;20184;-84
2023/05/03 07:29:07;;;;;;;1.77;0.80;;;18.60;43.40;;;;;;6199504;23;20143;-83
2023/05/03 07:31:52;;;;;;;1.42;0.70;;;18.60;43.40;;;;;;6194367;23;20534;-83
2023/05/03 07:34:18;;;;;;;0.47;0.40;;;18.60;43.00;;;;;;6124793;22;20523;-83
2023/05/03 07:37:05;;;;;;;0.65;0.60;;;18.70;43.00;;;;;;6198768;23;20260;-83
2023/05/03 07:39:51;;;;;;;1.65;0.68;;;18.70;43.20;;;;;;6198410;23;20476;-82
2023/05/03 07:42:36;;;;;;;0.73;0.50;;;18.60;43.20;;;;;;6122548;22;20133;-83
2023/05/03 07:45:21;;;;;;;1.00;0.75;;;18.70;43.10;;;;;;6148900;23;20643;-83
2023/05/03 07:48:06;;;;;;;2.70;0.70;;;18.60;43.10;;;;;;6148825;23;20226;-81
2023/05/03 07:50:50;;;;;;;0.70;0.60;;;18.60;43.30;;;;;;6173171;23;20179;-81
2023/05/03 07:53:34;;;;;;;1.48;0.60;;;18.70;43.20;;;;;;6149212;23;20171;-81
2023/05/03 07:56:00;;;;;;;1.27;0.55;;;18.60;43.00;;;;;;6173531;23;20152;-81
2023/05/03 07:58:26;;;;;;;0.93;0.63;;;18.60;43.10;;;;;;6174103;23;20207;-81
2023/05/03 08:00:52;;;;;;;0.70;0.68;;;18.60;43.00;;;;;;6223849;23;20144;-82
2023/05/03 08:03:18;;;;;;;0.57;0.57;;;18.80;43.00;;;;;;6199080;23;20136;-81
2023/05/03 08:05:43;;;;;;;0.68;0.65;;;18.80;42.90;;;;;;6198443;23;20219;-81
2023/05/03 08:08:09;;;;;;;0.95;0.60;;;18.60;43.00;;;;;;6223722;23;20215;-81
2023/05/03 08:10:36;;;;;;;0.70;0.60;;;18.60;43.00;;;;;;6198731;23;20148;-81
2023/05/03 08:13:04;;;;;;;0.98;0.60;;;18.60;43.00;;;;;;6222250;23;20187;-81
2023/05/03 08:15:30;;;;;;;0.55;0.55;;;18.60;42.90;;;;;;6223104;23;20227;-81
2023/05/03 08:17:56;;;;;;;1.05;0.70;;;18.60;42.90;;;;;;6198692;23;20190;-81
2023/05/03 08:20:22;;;;;;;1.55;0.60;;;18.70;42.70;;;;;;6223588;23;20163;-82
2023/05/03 08:22:48;;;;;;;1.35;0.63;;;18.60;42.60;;;;;;6198848;23;20137;-81
2023/05/03 08:25:16;;;;;;;0.60;0.60;;;18.70;42.50;;;;;;6177095;23;20489;-81
2023/05/03 08:27:42;;;;;;;0.50;0.50;;;18.80;42.40;;;;;;6174778;23;20476;-80
2023/05/03 08:30:08;;;;;;;0.85;0.60;;;18.80;42.40;;;;;;6122027;23;20552;-81
2023/05/03 08:32:34;;;;;;;0.50;0.50;;;18.80;42.30;;;;;;6122260;23;20235;-81
2023/05/03 08:35:00;;;;;;;0.77;0.60;;;18.70;42.40;;;;;;6122662;22;20249;-81
2023/05/03 08:37:25;;;;;;;0.50;0.50;;;18.70;42.40;;;;;;6173778;23;20211;-81
2023/05/03 08:39:54;;;;;;;0.50;0.50;;;18.70;42.50;;;;;;6223795;23;20578;-82
2023/05/03 08:42:20;;;;;;;0.40;0.40;;;18.60;42.60;;;;;;6224330;23;20133;-81
2023/05/03 08:44:48;;;;;;;0.70;0.57;;;18.60;42.40;;;;;;6198996;23;20139;-80
2023/05/03 08:47:15;;;;;;;0.90;0.60;;;18.70;42.30;;;;;;6121836;23;20140;-81
2023/05/03 08:49:42;;;;;;;0.50;0.50;;;18.70;42.20;;;;;;6199393;23;20149;-82
2023/05/03 08:52:10;;;;;;;0.50;0.50;;;18.70;42.30;;;;;;6174074;23;20152;-81
2023/05/03 08:54:36;;;;;;;0.30;0.30;;;18.70;42.30;;;;;;6223697;23;20129;-81
2023/05/03 08:57:02;;;;;;;1.40;0.52;;;18.70;42.30;;;;;;6200116;23;20175;-81
2023/05/03 08:59:28;;;;;;;1.38;0.50;;;18.80;41.90;;;;;;6174366;23;20148;-81
2023/05/03 09:01:55;;;;;;;0.45;0.40;;;18.90;41.60;;;;;;6223984;23;20137;-81
2023/05/03 09:04:31;;;;;;;0.52;0.52;;;18.90;41.70;;;;;;6122154;23;20139;-82
2023/05/03 09:07:12;;;;;;;0.40;0.40;;;18.90;41.50;;;;;;6200318;23;20187;-81
2023/05/03 09:09:38;;;;;;;0.40;0.40;;;18.90;41.20;;;;;;6175882;23;20170;-81
2023/05/03 09:12:04;;;;;;;0.45;0.30;;;19.00;41.30;;;;;;6122842;23;20163;-80
2023/05/03 09:14:30;;;;;;;0.60;0.60;;;19.00;41.00;;;;;;6224963;23;20133;-81
2023/05/03 09:16:57;;;;;;;1.73;0.60;;;19.10;40.90;;;;;;6122171;23;20511;-81
2023/05/03 09:19:23;;;;;;;2.63;0.60;;;19.00;41.20;;;;;;6224818;23;20437;-83
2023/05/03 09:21:49;;;;;;;0.75;0.60;;;18.90;41.20;;;;;;6123837;23;20136;-81
2023/05/03 09:24:16;;;;;;;0.38;0.38;;;18.90;41.40;;;;;;6199556;23;20182;-83
2023/05/03 09:26:42;;;;;;;0.50;0.50;;;18.90;41.30;;;;;;6225065;23;20164;-82
2023/05/03 09:29:08;;;;;;;0.82;0.70;;;19.00;41.20;;;;;;6225514;23;20201;-81
2023/05/03 09:31:35;;;;;;;0.50;0.50;;;19.00;41.20;;;;;;6174625;23;20605;-81
2023/05/03 09:34:00;;;;;;;0.63;0.63;;;19.00;41.30;;;;;;6224418;23;20250;-82
2023/05/03 09:36:26;;;;;;;0.75;0.52;;;19.00;41.20;;;;;;6224927;23;20180;-82
2023/05/03 09:38:52;;;;;;;0.52;0.50;;;18.90;41.40;;;;;;6199879;23;20152;-82
2023/05/03 09:41:27;;;;;;;0.50;0.50;;;19.00;41.00;;;;;;6199414;23;20231;-81
2023/05/03 09:43:55;;;;;;;0.70;0.50;;;19.00;40.70;;;;;;6224181;23;20158;-81
2023/05/03 09:46:20;;;;;;;0.63;0.60;;;19.10;40.60;;;;;;6223440;23;20168;-80
2023/05/03 09:48:49;;;;;;;0.50;0.50;;;19.10;40.50;;;;;;6225048;23;20156;-80
2023/05/03 09:51:15;;;;;;;0.60;0.60;;;19.10;40.70;;;;;;6223942;23;20133;-80
2023/05/03 09:53:41;;;;;;;0.40;0.40;;;19.10;40.60;;;;;;6123185;23;20137;-81
2023/05/03 09:56:28;;;;;;;0.40;0.40;;;19.10;40.70;;;;;;6225244;23;20560;-81
2023/05/03 09:58:54;;;;;;;1.75;0.50;;;19.00;40.80;;;;;;6226392;23;20164;-82
2023/05/03 10:01:21;;;;;;;1.48;0.60;;;19.00;40.90;;;;;;6122963;23;20535;-81
2023/05/03 10:03:50;;;;;;;1.05;0.40;;;19.00;40.70;;;;;;6225501;23;20205;-82
2023/05/03 10:06:34;;;;;;;0.40;0.40;;;18.90;40.80;;;;;;6200344;23;20207;-84
2023/05/03 10:09:15;;;;;;;1.88;0.50;;;18.90;40.70;;;;;;6225749;23;20152;-81
2023/05/03 10:11:51;;;;;;;0.40;0.40;;;18.90;40.80;;;;;;6223679;23;20136;-81
2023/05/03 10:14:19;;;;;;;0.30;0.30;;;19.00;40.70;;;;;;6127823;23;20136;-81
2023/05/03 10:16:49;;;;;;;1.08;0.40;;;18.90;40.70;;;;;;6201548;23;20215;-81
2023/05/03 10:19:50;;;;;;;1.58;0.50;;;18.90;40.30;;;;;;6201868;23;20148;-81
2023/05/03 10:22:17;;;;;;;0.85;0.85;;;19.00;40.30;;;;;;6226669;23;20140;-81
2023/05/03 10:25:15;;;;;;;1.42;0.60;;;18.90;40.20;;;;;;6205667;23;20132;-81
2023/05/03 10:27:53;;;;;;;2.03;0.75;;;18.90;40.20;;;;;;6130002;23;20199;-82
2023/05/03 10:30:39;;;;;;;2.45;0.70;;;18.90;40.10;;;;;;6129637;23;20128;-82
2023/05/03 10:33:33;;;;;;;2.40;0.70;;;18.90;39.80;;;;;;6231285;23;20148;-80
2023/05/03 10:36:03;;;;;;;2.05;0.50;;;18.90;40.00;;;;;;6123304;23;20223;-81
2023/05/03 10:38:30;;;;;;;0.45;0.40;;;18.90;39.90;;;;;;6199880;23;20148;-81
2023/05/03 10:40:59;;;;;;;1.02;0.70;;;18.90;39.60;;;;;;6176601;23;20206;-81
2023/05/03 10:43:40;;;;;;;2.67;0.45;;;18.90;39.80;;;;;;6148216;23;20164;-81
2023/05/03 10:46:10;;;;;;;1.60;0.50;;;18.80;39.70;;;;;;6223599;23;20167;-81
2023/05/03 10:48:38;;;;;;;3.08;0.40;;;18.80;39.50;;;;;;6125309;23;20159;-81
2023/05/03 10:51:31;;;;;;;3.15;0.70;;;18.80;39.80;;;;;;6172229;23;20481;-81
2023/05/03 10:54:00;;;;;;;0.77;0.50;;;18.80;39.80;;;;;;6095344;23;20618;-81
2023/05/03 10:56:27;;;;;;;0.73;0.50;;;18.80;39.80;;;;;;6174239;23;20156;-81
2023/05/03 10:58:55;;;;;;;0.50;0.50;;;18.70;39.70;;;;;;6174471;23;20166;-81
2023/05/03 11:01:23;;;;;;;1.60;0.50;;;18.70;39.40;;;;;;6150424;23;20160;-81
2023/05/03 11:04:07;;;;;;;0.50;0.50;;;18.70;39.40;;;;;;6125530;23;20233;-82
2023/05/03 11:06:35;;;;;;;0.50;0.40;;;18.70;39.50;;;;;;6225549;23;20160;-82
2023/05/03 11:09:04;;;;;;;0.63;0.63;;;18.70;39.40;;;;;;6174687;23;20160;-81
2023/05/03 11:11:33;;;;;;;0.65;0.50;;;18.70;39.20;;;;;;6173605;23;20234;-82
2023/05/03 11:14:00;;;;;;;1.80;0.40;;;18.70;39.10;;;;;;6150761;23;20153;-82
2023/05/03 11:16:27;;;;;;;1.92;0.50;;;18.80;39.20;;;;;;6124180;23;20156;-80
2023/05/03 11:18:55;;;;;;;2.03;0.60;;;18.70;38.90;;;;;;6124344;23;20487;-82
2023/05/03 11:21:22;;;;;;;2.33;0.52;;;18.70;39.00;;;;;;6173090;23;20156;-82
2023/05/03 11:23:54;;;;;;;1.15;0.60;;;18.70;39.00;;;;;;6125628;23;20152;-83
2023/05/03 11:26:24;;;;;;;2.58;0.50;;;18.70;38.90;;;;;;6175529;23;20194;-82
2023/05/03 11:28:55;;;;;;;1.30;0.57;;;18.80;39.30;;;;;;6132971;23;20600;-84
2023/05/03 11:31:21;;;;;;;0.77;0.50;;;18.90;39.10;;;;;;6152022;23;20160;-85
2023/05/03 11:34:08;;;;;;;0.82;0.47;;;18.80;39.00;;;;;;6164750;23;20190;-84
2023/05/03 11:36:36;;;;;;;0.70;0.40;;;18.80;39.30;;;;;;6189603;23;20169;-83
2023/05/03 11:39:04;;;;;;;1.52;0.60;;;18.90;38.90;;;;;;6189855;23;20191;-82
2023/05/03 11:41:45;;;;;;;0.93;0.70;;;18.90;39.20;;;;;;6188922;23;20233;-83
2023/05/03 11:44:42;;;;;;;1.55;0.50;;;18.90;39.20;;;;;;6125164;23;20155;-83
2023/05/03 11:47:10;;;;;;;0.70;0.60;;;18.90;38.80;;;;;;6095560;23;20183;-83
2023/05/03 11:50:26;;;;;;;1.25;0.50;;;18.90;38.80;;;;;;6095447;23;20231;-83
2023/05/03 11:53:24;;;;;;;;;;;;;;;;;;;;;
2023/05/03 11:55:52;;;;;;;0.73;0.43;;;19.00;38.90;;;;;;5988831;23;20251;-82
2023/05/03 11:58:31;;;;;;;0.55;0.55;;;19.00;38.50;;;;;;6094599;23;20627;-82
2023/05/03 12:01:02;;;;;;;3.60;0.60;;;19.10;38.40;;;;;;6094525;23;20480;-81
2023/05/03 12:03:29;;;;;;;1.98;0.60;;;19.00;38.50;;;;;;6047266;23;20163;-83
2023/05/03 12:06:01;;;;;;;2.42;0.60;;;19.00;38.30;;;;;;6122667;23;20194;-81
2023/05/03 12:08:29;;;;;;;1.75;0.50;;;19.10;38.70;;;;;;6076079;23;20156;-82
2023/05/03 12:10:55;;;;;;;2.78;0.60;;;19.00;38.90;;;;;;6099510;23;20156;-81
2023/05/03 12:13:34;;;;;;;1.77;0.50;;;19.00;38.70;;;;;;6123315;23;20168;-81
2023/05/03 12:16:01;;;;;;;1.27;0.50;;;18.90;38.60;;;;;;6201680;23;20161;-81
2023/05/03 12:18:27;;;;;;;0.50;0.50;;;18.90;38.70;;;;;;6188792;23;20566;-81
2023/05/03 12:21:03;;;;;;;0.75;0.45;;;18.90;38.50;;;;;;6128850;23;20186;-81
2023/05/03 12:23:32;;;;;;;2.55;0.40;;;19.10;38.00;;;;;;6153552;23;20230;-81
2023/05/03 12:26:06;;;;;;;2.80;0.65;;;19.00;38.10;;;;;;6028771;23;20195;-81
2023/05/03 12:28:55;;;;;;;0.40;0.40;;;19.10;38.40;;;;;;6149275;23;20587;-80
2023/05/03 12:31:22;;;;;;;1.92;0.57;;;19.00;38.20;;;;;;6165192;23;20162;-81
2023/05/03 12:33:47;;;;;;;2.00;0.50;;;19.00;38.20;;;;;;6157177;23;20201;-81
2023/05/03 12:36:13;;;;;;;1.85;0.50;;;19.00;38.40;;;;;;6062636;23;20149;-81
2023/05/03 12:38:44;;;;;;;0.50;0.40;;;19.00;38.30;;;;;;6065946;23;20217;-81
2023/05/03 12:41:10;;;;;;;1.73;0.77;;;19.00;38.10;;;;;;6076425;23;20627;-80
2023/05/03 12:43:49;;;;;;;4.25;0.70;;;19.00;38.20;;;;;;5977547;24;20289;-80
2023/05/03 12:46:15;;;;;;;1.33;0.68;;;19.00;38.60;;;;;;5977339;23;20195;-81
2023/05/03 12:48:41;;;;;;;1.40;0.63;;;19.00;38.40;;;;;;5950837;24;20170;-82
2023/05/03 12:51:06;;;;;;;1.88;0.73;;;19.00;38.20;;;;;;5955610;24;20519;-82
2023/05/03 12:53:32;;;;;;;6.60;0.95;;;19.10;38.20;;;;;;6076953;23;20493;-81
2023/05/03 12:55:58;;;;;;;1.88;0.52;;;19.10;38.60;;;;;;5977166;24;20193;-81